Portada
METAR-TAF:

METAR-TAF

Aeroports :

Libreville, Gabon

latitud: 00-27N, longitud: 009-25E, altitud: 12 m

Observació

L'informe es va fer fa 13 minuts, a les 13:00 UTC
Vent 7 kt del Oest/Sud-Oest
Temperatura 30°C
Humitat 75%
Pressió 1009 hPa
Visibilitat 10 km o més
Núvols disperses a una alçada de 1200 ft

METAR: FOOL 291300Z 24007KT 9999 SCT012 30/25 Q1009 NOSIG

Hora: 14:13 (13:13 UTC)

Pronòstic

L'informe es va fer fa 2 hores i 13 minuts, a les 11:00 UTC
Pronòstic vàlid del 29 a les 12 UTC al 30 a les 18 UTC
Vent 8 kt del Sud-Oest
Visibilitat 10 km o més
Núvols disperses a una alçada de 1200 ft
Escasses núvols a una alçada de 2000 ft, Cumulonimbus.
Cel ennuvolat a una alçada de 2600 ft
Probabilitat 30% :
Temporalment
l' 30 a les 14 UTC al 30 a les 18 UTC
tempesta

TAF: FOOL 291100Z 2912/3018 22008KT 9999 SCT012 FEW020CB BKN026 PROB30 TEMPO 3014/3018 TS

Observacions i pronòstics meteorològics de més de 4000 aeroports (METAR i TAF).

Les estacions disponibles són els punts grocs i vermells al mapa.

Posi el ratolí al punt desitjat per veure el nom de l'estació.

Feu clic per veure les observacions i els pronòstics meteorològics.

Per canviar el mapa: feu clic els botons verds amb una creu de color negre per apropar; al botó verd amb un guió per allunyar la imatge; o en les fletxes verdes per a mapes adjacents.


METAR-TAF: